Alma, GA

10:56 AM EDT on August 24, 2016 (GMT -0400)
Bacon County | | Change Station

Elev 200 ft 31.54 °N, 82.51 °W | Updated 3 minutes ago

Clear
Clear
85 °F
Feels Like 91 °F
N
7
Wind Variable Wind from ENE

Today
High -- | Low -- °F
--% Chance of Precip.
Yesterday
High -- | Low -- °F
Precip. -- in
Pressure 30.24 in
Visibility 10.0 miles
Clouds Clear
Heat Index 91 °F
Dew Point 72 °F
Humidity 65%
Rainfall 0.00 in
Snow Depth Not available.
7:01 AM 8:02 PM
Waning Gibbous, 56% visible
METAR KAMG 241453Z AUTO 06006KT 10SM CLR 29/22 A3024 RMK AO2 SLP238 T02940222 51007
Pressure 30.24 in
Visibility 10.0 miles
Clouds Clear
Heat Index 91 °F
Dew Point 72 °F
Humidity 65%
Rainfall 0.00 in
Snow Depth Not available.
7:01 AM 8:02 PM
Waning Gibbous, 56% visible
METAR KAMG 241453Z AUTO 06006KT 10SM CLR 29/22 A3024 RMK AO2 SLP238 T02940222 51007

10-Day Weather Forecast

Almanac

Astronomy

Aug. 24, 2016 Rise Set
Actual Time
Civil Twilight
Nautical Twilight
Astronomical Twilight
Moon
Length of Visible Light
Length of Day
Tomorrow will be .
, % of the Moon is Illuminated

Today's Extremes

State Highs State Lows

Community

WunderPhotos

Upload Photos

1,934,609 photos uploaded!

WunderBlog® & News

Nearby

Air Quality

  Air Quality AQ Index Pollutant
Not available.

Snow Depth

Station Depth Elevation

Earthquake Activity

City Distance Mag. Time & Date
Minimum magnitude displayed is 2.5.

Coastal Water Temperatures

Place Temperature

Stations

Nearby Weather Stations

Station Location Temp. Windchill Dew Point Humidity Wind Precip. Elev Updated Type
                   

Watches & Warnings

There are currently no watches in effect.